createdAt,value
2022-10-20T00:02:09.779Z,99943.13
2022-10-20T00:04:37.884Z,99946.53
2022-10-20T00:07:06.072Z,99941.63
2022-10-20T00:09:34.100Z,99941.53
2022-10-20T00:12:03.901Z,99936.84
2022-10-20T00:14:32.058Z,99947.94
2022-10-20T00:17:01.537Z,99946.88
2022-10-20T00:19:29.914Z,99938.81
2022-10-20T00:21:58.004Z,99948.88
2022-10-20T00:24:26.613Z,99939.06
2022-10-20T00:26:55.090Z,99935.81
2022-10-20T00:29:24.863Z,99933.72
2022-10-20T00:31:52.917Z,99928.50
2022-10-20T00:34:20.997Z,99921.16
2022-10-20T00:36:51.304Z,99916.25
2022-10-20T00:39:19.871Z,99904.66
2022-10-20T00:41:47.977Z,99910.38
2022-10-20T00:45:02.564Z,99899.47
2022-10-20T00:47:39.330Z,99900.41
2022-10-20T00:50:12.761Z,99901.38
2022-10-20T00:52:42.763Z,99906.72
2022-10-20T00:55:13.022Z,99903.78
2022-10-20T00:57:43.881Z,99920.69
2022-10-20T01:00:16.249Z,99932.59
2022-10-20T01:02:44.493Z,99956.50
2022-10-20T01:05:13.112Z,99954.97
2022-10-20T01:07:41.426Z,99950.25
2022-10-20T01:10:10.501Z,99953.75
2022-10-20T01:12:49.117Z,99949.56
2022-10-20T01:15:28.523Z,99954.75
2022-10-20T01:18:06.066Z,99940.25
2022-10-20T01:21:12.561Z,99949.06
2022-10-20T01:24:07.040Z,99944.81
2022-10-20T01:27:01.907Z,99932.69
2022-10-20T01:29:37.266Z,99913.19
2022-10-20T01:32:14.212Z,99907.75
2022-10-20T01:34:52.877Z,99901.00
2022-10-20T01:37:47.494Z,99901.75
2022-10-20T01:40:25.734Z,99912.28
2022-10-20T01:42:56.267Z,99916.38
2022-10-20T01:45:29.875Z,99912.19
2022-10-20T01:48:00.488Z,99916.44
2022-10-20T01:50:29.662Z,99922.59
2022-10-20T01:52:58.974Z,99926.53
2022-10-20T01:55:27.464Z,99921.72
2022-10-20T01:58:13.817Z,99908.72
2022-10-20T02:00:45.168Z,99903.69
2022-10-20T02:03:29.379Z,99910.16
2022-10-20T02:06:11.690Z,99924.59
2022-10-20T02:08:45.229Z,99922.25
2022-10-20T02:11:21.825Z,99922.66
2022-10-20T02:13:51.506Z,99934.28
2022-10-20T02:16:25.694Z,99926.84
2022-10-20T02:18:54.529Z,99925.66
2022-10-20T02:21:22.641Z,99916.31
2022-10-20T02:23:53.419Z,99909.69
2022-10-20T02:26:25.463Z,99912.41
2022-10-20T02:29:00.368Z,99904.66
2022-10-20T02:31:30.377Z,99906.34
2022-10-20T02:33:59.698Z,99894.84
2022-10-20T02:36:30.184Z,99887.94
2022-10-20T02:38:58.318Z,99877.50
2022-10-20T02:41:26.761Z,99876.50
2022-10-20T02:43:54.894Z,99874.59
2022-10-20T02:46:24.249Z,99874.81
2022-10-20T02:48:54.234Z,99872.25
2022-10-20T02:51:22.529Z,99855.72
2022-10-20T02:53:50.983Z,99847.69
2022-10-20T02:56:19.145Z,99841.38
2022-10-20T02:58:47.577Z,99838.00
2022-10-20T03:01:15.821Z,99838.00
2022-10-20T03:03:44.072Z,99835.38
2022-10-20T03:06:15.650Z,99835.59
2022-10-20T03:08:44.092Z,99829.28
2022-10-20T03:11:12.164Z,99820.38
2022-10-20T03:13:40.331Z,99820.66
2022-10-20T03:16:09.113Z,99831.34
2022-10-20T03:18:37.179Z,99840.69
2022-10-20T03:21:05.359Z,99828.50
2022-10-20T03:23:35.403Z,99826.72
2022-10-20T03:26:04.139Z,99823.66
2022-10-20T03:28:32.586Z,99821.38
2022-10-20T03:31:00.637Z,99818.28
2022-10-20T03:33:29.021Z,99808.59
2022-10-20T03:35:57.209Z,99809.19
2022-10-20T03:38:25.610Z,99795.28
2022-10-20T03:40:55.285Z,99789.44
2022-10-20T03:43:23.435Z,99783.81
2022-10-20T03:45:51.914Z,99773.66
2022-10-20T03:48:19.959Z,99776.44
2022-10-20T03:50:48.099Z,99765.13
2022-10-20T03:53:16.228Z,99763.63
2022-10-20T03:55:44.281Z,99758.34
2022-10-20T03:58:13.995Z,99758.50
2022-10-20T04:00:42.132Z,99753.66
2022-10-20T04:03:10.417Z,99758.78
2022-10-20T04:05:38.654Z,99763.25
2022-10-20T04:08:07.139Z,99760.63
2022-10-20T04:10:35.522Z,99772.09
2022-10-20T04:13:03.885Z,99765.97
2022-10-20T04:15:33.444Z,99758.78
2022-10-20T04:18:01.630Z,99748.34
2022-10-20T04:20:29.755Z,99750.94
2022-10-20T04:22:58.074Z,99739.97
2022-10-20T04:25:26.547Z,99735.94
2022-10-20T04:27:55.023Z,99739.56
2022-10-20T04:30:23.132Z,99736.06
2022-10-20T04:32:53.472Z,99732.38
2022-10-20T04:35:21.611Z,99732.03
2022-10-20T04:37:49.775Z,99736.97
2022-10-20T04:40:17.882Z,99740.38
2022-10-20T04:42:46.256Z,99744.16
2022-10-20T04:45:14.814Z,99744.03
2022-10-20T04:47:43.399Z,99738.47
2022-10-20T04:50:14.519Z,99741.72
2022-10-20T04:52:42.653Z,99746.38
2022-10-20T04:55:11.023Z,99763.78
2022-10-20T04:57:39.602Z,99762.94
2022-10-20T05:00:08.805Z,99766.59
2022-10-20T05:02:37.359Z,99769.31
2022-10-20T05:05:06.114Z,99771.34
2022-10-20T05:07:37.438Z,99776.56
2022-10-20T05:10:07.031Z,99776.47
2022-10-20T05:12:35.772Z,99778.63
2022-10-20T05:15:04.002Z,99774.06
2022-10-20T05:17:32.529Z,99772.31
2022-10-20T05:20:00.565Z,99769.59
2022-10-20T05:22:28.669Z,99772.09
2022-10-20T05:25:12.749Z,99766.16
2022-10-20T05:27:46.840Z,99760.66
2022-10-20T05:30:14.910Z,99770.06
2022-10-20T05:32:43.081Z,99763.91
2022-10-20T05:35:11.128Z,99762.50
2022-10-20T05:37:39.558Z,99777.47
2022-10-20T05:40:12.099Z,99771.72
2022-10-20T05:42:40.324Z,99767.34
2022-10-20T05:45:10.347Z,99767.91
2022-10-20T05:47:38.559Z,99771.63
2022-10-20T05:50:07.687Z,99771.81
2022-10-20T05:52:37.258Z,99771.81
2022-10-20T05:55:06.539Z,99776.19
2022-10-20T05:57:36.366Z,99769.03
2022-10-20T06:00:05.870Z,99770.78
2022-10-20T06:02:40.103Z,99774.31
2022-10-20T06:05:08.621Z,99771.72
2022-10-20T06:07:36.775Z,99774.69
2022-10-20T06:10:05.746Z,99763.91
2022-10-20T06:12:36.883Z,99757.59
2022-10-20T06:15:05.720Z,99751.53
2022-10-20T06:17:33.829Z,99761.50
2022-10-20T06:20:02.008Z,99755.25
2022-10-20T06:22:30.083Z,99755.25
2022-10-20T06:24:58.170Z,99750.31
2022-10-20T06:27:26.590Z,99751.88
2022-10-20T06:29:56.293Z,99752.84
2022-10-20T06:32:24.468Z,99751.34
2022-10-20T06:34:54.151Z,99751.16
2022-10-20T06:37:22.377Z,99758.03
2022-10-20T06:39:50.430Z,99755.53
2022-10-20T06:42:18.960Z,99760.53
2022-10-20T06:44:47.239Z,99751.06
2022-10-20T06:47:17.046Z,99765.75
2022-10-20T06:49:45.196Z,99772.91
2022-10-20T06:52:13.309Z,99764.09
2022-10-20T06:54:41.742Z,99765.03
2022-10-20T06:57:10.071Z,99764.53
2022-10-20T06:59:38.855Z,99773.09
2022-10-20T07:02:07.051Z,99765.38
2022-10-20T07:04:39.532Z,99757.56
2022-10-20T07:07:07.546Z,99764.28
2022-10-20T07:09:36.527Z,99773.38
2022-10-20T07:12:04.838Z,99769.03
2022-10-20T07:14:33.368Z,99769.94
2022-10-20T07:17:01.591Z,99769.50
2022-10-20T07:19:30.028Z,99775.28
2022-10-20T07:21:59.721Z,99767.09
2022-10-20T07:24:29.165Z,99771.72
2022-10-20T07:26:57.695Z,99770.03
2022-10-20T07:29:26.570Z,99761.06
2022-10-20T07:31:56.814Z,99761.91
2022-10-20T07:34:28.088Z,99769.38
2022-10-20T07:36:57.955Z,99781.47
2022-10-20T07:39:29.433Z,99776.75
2022-10-20T07:41:57.718Z,99779.09
2022-10-20T07:44:26.426Z,99781.78
2022-10-20T07:46:54.659Z,99777.66
2022-10-20T07:49:43.413Z,99785.03
2022-10-20T07:52:11.391Z,99777.94
2022-10-20T07:54:40.999Z,99780.53
2022-10-20T07:57:09.247Z,99777.53
2022-10-20T07:59:38.047Z,99789.00
2022-10-20T08:02:06.703Z,99784.63
2022-10-20T08:04:35.067Z,99786.63
2022-10-20T08:07:03.570Z,99786.47
2022-10-20T08:09:33.842Z,99770.78
2022-10-20T08:12:04.631Z,99767.91
2022-10-20T08:14:35.202Z,99760.38
2022-10-20T08:17:10.115Z,99764.31
2022-10-20T08:19:54.987Z,99768.81
2022-10-20T08:22:23.513Z,99772.72
2022-10-20T08:24:52.267Z,99768.34
2022-10-20T08:27:22.394Z,99769.13
2022-10-20T08:29:59.952Z,99771.63
2022-10-20T08:32:35.308Z,99775.00
2022-10-20T08:35:04.097Z,99768.00
2022-10-20T08:37:33.530Z,99768.34
2022-10-20T08:40:03.779Z,99759.34
2022-10-20T08:42:40.309Z,99764.13
2022-10-20T08:45:15.355Z,99768.78
2022-10-20T08:47:44.764Z,99763.72
2022-10-20T08:50:17.013Z,99754.50
2022-10-20T08:52:48.803Z,99742.88
2022-10-20T08:55:27.575Z,99742.47
2022-10-20T08:58:03.246Z,99742.34
2022-10-20T09:00:33.468Z,99750.44
2022-10-20T09:03:14.639Z,99742.63
2022-10-20T09:05:46.510Z,99736.81
2022-10-20T09:08:15.018Z,99735.44
2022-10-20T09:10:48.681Z,99716.81
2022-10-20T09:13:24.692Z,99730.66
2022-10-20T09:15:59.740Z,99733.75
2022-10-20T09:18:28.442Z,99722.78
2022-10-20T09:21:01.220Z,99712.28
2022-10-20T09:23:40.997Z,99711.13
2022-10-20T09:26:24.951Z,99711.50
2022-10-20T09:29:14.142Z,99699.06
2022-10-20T09:31:44.957Z,99702.97
2022-10-20T09:34:24.950Z,99707.97
2022-10-20T09:36:55.276Z,99696.84
2022-10-20T09:39:27.508Z,99691.44
2022-10-20T09:44:50.339Z,99688.00
2022-10-20T09:47:20.421Z,99681.94
2022-10-20T09:49:58.455Z,99678.63
2022-10-20T09:52:34.535Z,99677.84
2022-10-20T09:55:06.951Z,99675.19
2022-10-20T09:57:35.936Z,99666.19
2022-10-20T10:00:25.301Z,99675.94
2022-10-20T10:03:26.313Z,99673.63
2022-10-20T10:05:56.360Z,99674.09
2022-10-20T10:08:27.947Z,99675.06
2022-10-20T10:11:01.202Z,99675.06
2022-10-20T10:13:32.093Z,99670.34
2022-10-20T10:16:08.151Z,99664.56
2022-10-20T10:18:39.022Z,99670.22
2022-10-20T10:21:10.080Z,99655.91
2022-10-20T10:23:51.902Z,99654.44
2022-10-20T10:26:46.517Z,99646.53
2022-10-20T10:29:25.513Z,99659.47
2022-10-20T10:32:01.545Z,99638.09
2022-10-20T10:34:59.956Z,99630.72
2022-10-20T10:37:32.376Z,99638.19
2022-10-20T10:40:12.865Z,99632.47
2022-10-20T10:43:02.870Z,99634.81
2022-10-20T10:45:45.389Z,99637.31
2022-10-20T10:48:33.624Z,99628.56
2022-10-20T10:51:05.460Z,99633.50
2022-10-20T10:53:51.325Z,99637.44
2022-10-20T10:56:28.282Z,99630.00
2022-10-20T10:58:59.882Z,99616.00
2022-10-20T11:01:48.505Z,99618.31
2022-10-20T11:04:50.040Z,99613.56
2022-10-20T11:07:29.557Z,99607.88
2022-10-20T11:10:10.830Z,99611.91
2022-10-20T11:13:01.098Z,99610.84
2022-10-20T11:15:46.315Z,99603.44
2022-10-20T11:18:22.377Z,99607.50
2022-10-20T11:21:00.987Z,99610.44
2022-10-20T11:23:53.529Z,99601.63
2022-10-20T11:26:28.215Z,99590.16
2022-10-20T11:28:59.341Z,99592.53
2022-10-20T11:31:32.642Z,99596.28
2022-10-20T11:34:06.069Z,99601.09
2022-10-20T11:36:40.337Z,99590.31
2022-10-20T11:39:16.475Z,99593.28
2022-10-20T11:41:49.954Z,99594.56
2022-10-20T11:44:26.807Z,99583.13
2022-10-20T11:46:58.904Z,99577.78
2022-10-20T11:49:27.615Z,99555.50
2022-10-20T11:52:29.466Z,99557.31
2022-10-20T11:55:18.777Z,99563.91
2022-10-20T11:58:03.533Z,99564.25
2022-10-20T12:00:54.067Z,99555.44
2022-10-20T12:04:08.511Z,99553.75
2022-10-20T12:07:02.957Z,99554.00
2022-10-20T12:10:01.579Z,99537.53
2022-10-20T12:12:35.126Z,99536.31
2022-10-20T12:15:06.047Z,99521.44
2022-10-20T12:17:42.999Z,99507.22
2022-10-20T12:20:59.861Z,99515.56
2022-10-20T12:24:03.039Z,99510.91
2022-10-20T12:27:17.756Z,99497.59
2022-10-20T12:29:54.913Z,99496.69
2022-10-20T12:32:38.934Z,99490.72
2022-10-20T12:35:52.322Z,99481.22
2022-10-20T12:38:23.120Z,99476.41
2022-10-20T12:40:57.944Z,99463.63
2022-10-20T12:43:46.047Z,99471.13
2022-10-20T12:46:21.341Z,99457.31
2022-10-20T12:48:56.817Z,99465.41
2022-10-20T12:51:40.831Z,99456.25
2022-10-20T12:54:22.459Z,99440.94
2022-10-20T12:56:52.172Z,99445.91
2022-10-20T12:59:40.868Z,99446.03
2022-10-20T13:02:45.884Z,99427.09
2022-10-20T13:05:43.883Z,99431.13
2022-10-20T13:08:37.004Z,99434.06
2022-10-20T13:11:44.655Z,99433.44
2022-10-20T13:14:29.820Z,99434.50
2022-10-20T13:17:12.051Z,99437.41
2022-10-20T13:19:44.564Z,99436.75
2022-10-20T13:22:39.258Z,99429.84
2022-10-20T13:25:16.059Z,99427.19
2022-10-20T13:27:44.988Z,99425.81
2022-10-20T13:30:21.996Z,99420.13
2022-10-20T13:33:17.943Z,99415.84
2022-10-20T13:35:57.350Z,99395.78
2022-10-20T13:38:30.856Z,99420.41
2022-10-20T13:41:03.528Z,99405.34
2022-10-20T13:43:41.265Z,99400.75
2022-10-20T13:46:26.506Z,99396.72
2022-10-20T13:49:26.444Z,99397.03
2022-10-20T13:52:00.146Z,99382.63
2022-10-20T13:54:33.676Z,99384.16
2022-10-20T13:57:02.900Z,99364.06
2022-10-20T13:59:32.110Z,99371.97
2022-10-20T14:02:03.853Z,99373.44
2022-10-20T14:04:35.405Z,99375.34
2022-10-20T14:07:05.399Z,99378.28
2022-10-20T14:09:33.932Z,99375.88
2022-10-20T14:12:05.327Z,99384.91
2022-10-20T14:14:34.329Z,99375.25
2022-10-20T14:17:05.333Z,99360.16
2022-10-20T14:19:35.846Z,99359.84
2022-10-20T14:22:13.940Z,99367.84
2022-10-20T14:24:44.858Z,99364.31
2022-10-20T14:27:20.282Z,99360.28
2022-10-20T14:29:49.396Z,99359.84
2022-10-20T14:32:20.717Z,99358.50
2022-10-20T14:34:58.938Z,99370.78
2022-10-20T14:37:32.226Z,99367.34
2022-10-20T14:40:02.351Z,99359.34
2022-10-20T14:42:32.988Z,99358.38
2022-10-20T14:45:04.225Z,99367.50
2022-10-20T14:47:39.613Z,99355.75
2022-10-20T14:50:21.922Z,99359.38
2022-10-20T14:52:54.000Z,99368.06
2022-10-20T14:55:33.410Z,99352.28
2022-10-20T14:58:02.268Z,99341.22
2022-10-20T15:00:36.097Z,99348.78
2022-10-20T15:03:08.297Z,99339.09
2022-10-20T15:05:42.360Z,99329.03
2022-10-20T15:08:18.881Z,99326.38
2022-10-20T15:10:47.738Z,99332.31
2022-10-20T15:13:29.788Z,99323.16
2022-10-20T15:15:59.682Z,99326.81
2022-10-20T15:18:29.219Z,99324.91
2022-10-20T15:20:59.036Z,99325.16
2022-10-20T15:23:28.901Z,99337.94
2022-10-20T15:26:01.610Z,99332.38
2022-10-20T15:28:37.540Z,99331.94
2022-10-20T15:31:08.572Z,99333.88
2022-10-20T15:33:37.114Z,99328.34
2022-10-20T15:36:13.450Z,99317.13
2022-10-20T15:38:41.661Z,99320.06
2022-10-20T15:41:12.869Z,99304.19
2022-10-20T15:43:41.678Z,99312.31
2022-10-20T15:46:12.577Z,99296.56
2022-10-20T15:48:41.724Z,99298.88
2022-10-20T15:51:16.688Z,99285.63
2022-10-20T15:53:46.100Z,99289.50
2022-10-20T15:56:14.285Z,99284.41
2022-10-20T15:58:43.558Z,99286.78
2022-10-20T16:01:13.877Z,99280.63
2022-10-20T16:03:43.435Z,99272.44
2022-10-20T16:06:14.440Z,99266.75
2022-10-20T16:08:43.164Z,99258.88
2022-10-20T16:11:12.261Z,99256.19
2022-10-20T16:13:42.155Z,99237.25
2022-10-20T16:16:15.046Z,99234.63
2022-10-20T16:18:43.651Z,99223.75
2022-10-20T16:21:13.509Z,99242.50
2022-10-20T16:23:44.849Z,99235.84
2022-10-20T16:26:15.179Z,99220.25
2022-10-20T16:28:44.680Z,99226.91
2022-10-20T16:31:16.556Z,99226.88
2022-10-20T16:33:45.561Z,99227.94
2022-10-20T16:36:18.375Z,99232.13
2022-10-20T16:38:46.594Z,99235.13
2022-10-20T16:41:16.615Z,99224.31
2022-10-20T16:43:47.451Z,99237.34
2022-10-20T16:46:16.594Z,99239.75
2022-10-20T16:48:47.857Z,99233.06
2022-10-20T16:51:19.166Z,99234.16
2022-10-20T16:53:48.377Z,99236.16
2022-10-20T16:56:20.029Z,99241.00
2022-10-20T16:58:49.808Z,99234.09
2022-10-20T17:01:20.094Z,99234.63
2022-10-20T17:03:50.200Z,99238.97
2022-10-20T17:06:22.362Z,99231.16
2022-10-20T17:08:51.646Z,99234.41
2022-10-20T17:11:22.320Z,99233.56
2022-10-20T17:13:50.623Z,99233.47
2022-10-20T17:16:22.455Z,99218.63
2022-10-20T17:18:54.475Z,99212.31
2022-10-20T17:21:25.963Z,99214.66
2022-10-20T17:23:54.225Z,99204.94
2022-10-20T17:26:24.288Z,99206.75
2022-10-20T17:28:55.632Z,99210.38
2022-10-20T17:31:23.852Z,99204.94
2022-10-20T17:33:52.613Z,99200.78
2022-10-20T17:36:26.052Z,99187.25
2022-10-20T17:38:59.272Z,99186.53
2022-10-20T17:41:27.804Z,99195.69
2022-10-20T17:43:56.246Z,99191.41
2022-10-20T17:46:24.417Z,99181.03
2022-10-20T17:48:52.571Z,99167.94
2022-10-20T17:51:23.149Z,99157.13
2022-10-20T17:53:53.834Z,99160.94
2022-10-20T17:56:27.204Z,99152.50
2022-10-20T17:58:56.800Z,99148.94
2022-10-20T18:01:27.861Z,99142.59
2022-10-20T18:03:58.008Z,99137.84
2022-10-20T18:06:32.755Z,99134.13
2022-10-20T18:09:04.930Z,99140.38
2022-10-20T18:11:36.375Z,99146.84
2022-10-20T18:14:05.716Z,99141.72
2022-10-20T18:16:35.951Z,99135.13
2022-10-20T18:19:05.475Z,99134.56
2022-10-20T18:21:34.435Z,99135.59
2022-10-20T18:24:05.829Z,99114.19
2022-10-20T18:26:37.789Z,99120.53
2022-10-20T18:29:07.748Z,99113.63
2022-10-20T18:31:38.352Z,99106.66
2022-10-20T18:34:09.313Z,99101.38
2022-10-20T18:36:42.057Z,99094.50
2022-10-20T18:39:14.842Z,99088.59
2022-10-20T18:41:46.411Z,99103.97
2022-10-20T18:44:16.506Z,99103.50
2022-10-20T18:46:46.286Z,99111.66
2022-10-20T18:49:18.897Z,99107.25
2022-10-20T18:51:48.301Z,99109.06
2022-10-20T18:54:17.667Z,99111.69
2022-10-20T18:56:47.540Z,99114.44
2022-10-20T18:59:17.305Z,99115.13
2022-10-20T19:01:48.907Z,99107.28
2022-10-20T19:04:17.290Z,99104.56
2022-10-20T19:06:47.146Z,99090.75
2022-10-20T19:09:17.758Z,99091.69
2022-10-20T19:11:48.137Z,99074.59
2022-10-20T19:14:16.663Z,99088.50
2022-10-20T19:16:46.291Z,99092.44
2022-10-20T19:19:15.793Z,99085.88
2022-10-20T19:21:44.413Z,99075.03
2022-10-20T19:24:16.519Z,99068.41
2022-10-20T19:26:52.805Z,99067.56
2022-10-20T19:29:32.202Z,99042.09
2022-10-20T19:32:02.787Z,99053.19
2022-10-20T19:34:33.849Z,99062.66
2022-10-20T19:37:02.945Z,99058.91
2022-10-20T19:39:33.649Z,99054.34
2022-10-20T19:42:03.480Z,99051.06
2022-10-20T19:44:34.157Z,99057.59
2022-10-20T19:47:04.044Z,99055.19
2022-10-20T19:49:32.625Z,99065.78
2022-10-20T19:52:01.178Z,99052.69
2022-10-20T19:54:29.919Z,99067.56
2022-10-20T19:56:58.141Z,99060.53
2022-10-20T19:59:26.607Z,99052.94
2022-10-20T20:01:56.049Z,99045.34
2022-10-20T20:04:24.145Z,99037.97
2022-10-20T20:06:53.114Z,99045.66
2022-10-20T20:09:21.647Z,99051.63
2022-10-20T20:11:50.274Z,99052.59
2022-10-20T20:14:20.351Z,99044.59
2022-10-20T20:16:49.006Z,99057.47
2022-10-20T20:19:19.068Z,99062.38
2022-10-20T20:21:47.660Z,99051.09
2022-10-20T20:24:16.128Z,99055.56
2022-10-20T20:26:45.077Z,99039.31
2022-10-20T20:29:13.622Z,99023.88
2022-10-20T20:31:42.172Z,99041.94
2022-10-20T20:34:10.323Z,99031.75
2022-10-20T20:36:40.518Z,99040.16
2022-10-20T20:39:08.950Z,99037.06
2022-10-20T20:41:37.284Z,99062.16
2022-10-20T20:44:08.573Z,99069.97
2022-10-20T20:46:37.400Z,99082.44
2022-10-20T20:49:06.658Z,99092.91
2022-10-20T20:51:35.708Z,99086.97
2022-10-20T20:54:05.789Z,99078.91
2022-10-20T20:56:34.221Z,99096.50
2022-10-20T20:59:02.709Z,99096.31
2022-10-20T21:01:32.743Z,99104.56
2022-10-20T21:04:04.181Z,99108.81
2022-10-20T21:06:49.575Z,99103.94
2022-10-20T21:09:23.706Z,99069.94
2022-10-20T21:11:51.928Z,99072.31
2022-10-20T21:14:20.497Z,99052.22
2022-10-20T21:16:48.777Z,99052.28
2022-10-20T21:19:16.963Z,99040.81
2022-10-20T21:21:50.989Z,99048.03
2022-10-20T21:24:20.037Z,99032.00
2022-10-20T21:26:50.143Z,99034.56
2022-10-20T21:29:18.746Z,99023.50
2022-10-20T21:31:46.957Z,99022.63
2022-10-20T21:34:16.017Z,99026.78
2022-10-20T21:36:44.495Z,99011.28
2022-10-20T21:39:15.919Z,99000.28
2022-10-20T21:41:46.334Z,98998.88
2022-10-20T21:44:16.164Z,99010.97
2022-10-20T21:46:47.760Z,98991.50
2022-10-20T21:49:18.892Z,98994.16
2022-10-20T21:51:49.981Z,99002.25
2022-10-20T21:56:51.150Z,99000.19
2022-10-20T21:59:23.695Z,98993.59
2022-10-20T22:01:54.029Z,98987.94
2022-10-20T22:04:24.898Z,98985.59
2022-10-20T22:06:53.724Z,98964.53
2022-10-20T22:09:24.400Z,98962.22
2022-10-20T22:11:56.119Z,98989.22
2022-10-20T22:14:26.080Z,98971.16
2022-10-20T22:16:55.652Z,98972.78
2022-10-20T22:19:24.944Z,98987.00
2022-10-20T22:21:55.154Z,98987.56
2022-10-20T22:24:24.520Z,98995.34
2022-10-20T22:26:55.235Z,98991.75
2022-10-20T22:29:26.020Z,98987.34
2022-10-20T22:31:56.081Z,98994.25
2022-10-20T22:34:24.376Z,98994.53
2022-10-20T22:36:53.524Z,98990.78
2022-10-20T22:39:22.170Z,98987.63
2022-10-20T22:41:50.339Z,98984.34
2022-10-20T22:44:20.114Z,98995.19
2022-10-20T22:46:50.124Z,98978.25
2022-10-20T22:49:18.376Z,98981.31
2022-10-20T22:51:46.995Z,98984.19
2022-10-20T22:54:15.248Z,98985.72
2022-10-20T22:56:43.436Z,98973.16
2022-10-20T22:59:11.921Z,98965.31
2022-10-20T23:01:40.645Z,98953.03
2022-10-20T23:04:10.258Z,98959.63
2022-10-20T23:06:41.210Z,98954.38
2022-10-20T23:09:10.851Z,98954.38
2022-10-20T23:11:39.083Z,98947.59
2022-10-20T23:14:07.580Z,98937.13
2022-10-20T23:16:35.740Z,98934.25
2022-10-20T23:19:03.921Z,98936.84
2022-10-20T23:21:33.799Z,98947.84
2022-10-20T23:24:02.345Z,98939.84
2022-10-20T23:26:30.502Z,98937.38
2022-10-20T23:28:58.984Z,98950.19
2022-10-20T23:31:27.422Z,98950.31
2022-10-20T23:33:57.098Z,98949.34
2022-10-20T23:36:25.938Z,98955.13
2022-10-20T23:38:56.359Z,98959.03
2022-10-20T23:41:24.566Z,98952.75
2022-10-20T23:43:54.081Z,98954.63
2022-10-20T23:46:23.535Z,98929.06
2022-10-20T23:48:51.827Z,98949.59
2022-10-20T23:51:20.036Z,98957.81
2022-10-20T23:53:48.216Z,98947.28
2022-10-20T23:56:17.801Z,98935.56
2022-10-20T23:58:45.976Z,98948.97
